createdAt,value
2017-11-11T00:00:29.733Z,6.70
2017-11-11T00:02:57.238Z,6.60
2017-11-11T00:05:24.746Z,6.50
2017-11-11T00:07:52.797Z,6.50
2017-11-11T00:10:20.308Z,6.50
2017-11-11T00:12:47.820Z,6.50
2017-11-11T00:15:15.416Z,6.40
2017-11-11T00:17:42.932Z,6.40
2017-11-11T00:20:10.452Z,6.50
2017-11-11T00:22:38.016Z,6.50
2017-11-11T00:25:05.539Z,6.60
2017-11-11T00:27:33.051Z,6.60
2017-11-11T00:30:00.629Z,6.60
2017-11-11T00:32:28.200Z,6.60
2017-11-11T00:34:55.721Z,6.60
2017-11-11T00:37:23.285Z,6.60
2017-11-11T00:39:50.791Z,6.60
2017-11-11T00:42:18.301Z,6.60
2017-11-11T00:44:45.937Z,6.60
2017-11-11T00:47:13.443Z,6.60
2017-11-11T00:49:40.951Z,6.60
2017-11-11T00:52:08.528Z,6.60
2017-11-11T00:54:36.084Z,6.60
2017-11-11T00:57:03.597Z,6.60
2017-11-11T00:59:31.227Z,6.70
2017-11-11T01:01:58.736Z,6.70
2017-11-11T01:04:27.007Z,6.70
2017-11-11T01:06:54.573Z,6.80
2017-11-11T01:09:22.081Z,6.80
2017-11-11T01:11:49.589Z,6.70
2017-11-11T01:14:17.165Z,6.50
2017-11-11T01:16:44.677Z,6.50
2017-11-11T01:19:12.188Z,6.40
2017-11-11T01:21:39.755Z,6.30
2017-11-11T01:24:07.682Z,6.30
2017-11-11T01:32:01.091Z,6.00
2017-11-11T01:34:28.611Z,6.00
2017-11-11T01:36:56.215Z,5.90
2017-11-11T01:39:23.737Z,5.80
2017-11-11T01:41:51.248Z,5.80
2017-11-11T01:44:18.952Z,5.80
2017-11-11T01:46:46.473Z,5.80
2017-11-11T01:49:13.994Z,5.70
2017-11-11T01:51:41.624Z,5.60
2017-11-11T01:54:09.181Z,5.60
2017-11-11T01:56:36.684Z,5.50
2017-11-11T01:59:04.256Z,5.50
2017-11-11T02:01:31.759Z,5.50
2017-11-11T02:04:01.290Z,5.40
2017-11-11T02:06:28.842Z,5.40
2017-11-11T02:08:57.507Z,5.30
2017-11-11T02:11:25.824Z,5.20
2017-11-11T02:13:53.384Z,5.20
2017-11-11T02:16:20.906Z,5.10
2017-11-11T02:18:48.650Z,5.00
2017-11-11T02:21:16.221Z,4.90
2017-11-11T02:23:44.513Z,4.80
2017-11-11T02:26:12.784Z,4.70
2017-11-11T02:28:41.159Z,4.70
2017-11-11T02:31:08.709Z,4.70
2017-11-11T02:33:36.222Z,4.80
2017-11-11T02:36:03.786Z,4.80
2017-11-11T02:38:31.301Z,4.90
2017-11-11T02:40:58.815Z,4.90
2017-11-11T02:43:26.365Z,4.80
2017-11-11T02:45:53.896Z,4.80
2017-11-11T02:48:21.401Z,4.80
2017-11-11T02:50:48.965Z,4.80
2017-11-11T02:53:16.475Z,4.80
2017-11-11T02:55:43.983Z,4.70
2017-11-11T02:58:11.596Z,4.70
2017-11-11T03:00:39.121Z,4.80
2017-11-11T03:03:06.704Z,4.80
2017-11-11T03:05:34.415Z,4.90
2017-11-11T03:08:02.577Z,4.90
2017-11-11T03:10:30.327Z,4.90
2017-11-11T03:12:57.937Z,4.90
2017-11-11T03:15:25.763Z,4.80
2017-11-11T03:17:53.472Z,4.80
2017-11-11T03:20:21.060Z,4.80
2017-11-11T03:22:48.628Z,4.80
2017-11-11T03:25:16.142Z,4.70
2017-11-11T03:27:43.792Z,4.70
2017-11-11T03:30:11.298Z,4.70
2017-11-11T03:32:38.868Z,4.70
2017-11-11T03:35:06.491Z,4.60
2017-11-11T03:37:34.008Z,4.60
2017-11-11T03:40:01.521Z,4.60
2017-11-11T03:42:29.518Z,4.60
2017-11-11T03:44:57.024Z,4.60
2017-11-11T03:47:24.533Z,4.60
2017-11-11T03:49:52.096Z,4.50
2017-11-11T03:52:20.856Z,4.40
2017-11-11T03:54:48.356Z,4.40
2017-11-11T03:57:15.988Z,4.40
2017-11-11T03:59:43.502Z,4.40
2017-11-11T04:02:11.008Z,4.40
2017-11-11T04:04:39.439Z,4.40
2017-11-11T04:07:06.971Z,4.30
2017-11-11T04:09:34.728Z,4.40
2017-11-11T04:12:02.266Z,4.40
2017-11-11T04:14:29.779Z,4.40
2017-11-11T04:16:57.348Z,4.40
2017-11-11T04:19:24.852Z,4.50
2017-11-11T04:21:52.356Z,4.50
2017-11-11T04:24:20.015Z,4.50
2017-11-11T04:26:47.529Z,4.50
2017-11-11T04:29:15.045Z,4.50
2017-11-11T04:31:42.596Z,4.50
2017-11-11T04:34:11.744Z,4.60
2017-11-11T04:36:39.253Z,4.50
2017-11-11T04:39:06.816Z,4.50
2017-11-11T04:41:34.321Z,4.50
2017-11-11T04:44:01.836Z,4.50
2017-11-11T04:46:29.376Z,4.40
2017-11-11T04:48:56.894Z,4.40
2017-11-11T04:51:24.469Z,4.40
2017-11-11T04:53:52.756Z,4.40
2017-11-11T04:56:20.288Z,4.40
2017-11-11T04:58:47.816Z,4.50
2017-11-11T05:01:15.322Z,4.50
2017-11-11T05:03:42.868Z,4.60
2017-11-11T05:06:10.383Z,4.60
2017-11-11T05:08:37.940Z,4.70
2017-11-11T05:11:05.476Z,4.80
2017-11-11T05:13:32.989Z,4.70
2017-11-11T05:16:00.497Z,4.80
2017-11-11T05:18:28.092Z,4.70
2017-11-11T05:20:55.595Z,4.70
2017-11-11T05:23:23.104Z,4.80
2017-11-11T05:25:50.662Z,4.80
2017-11-11T05:28:18.172Z,4.80
2017-11-11T05:30:45.668Z,4.70
2017-11-11T05:33:13.228Z,4.80
2017-11-11T05:35:41.252Z,4.80
2017-11-11T05:38:08.772Z,4.80
2017-11-11T05:40:36.326Z,4.80
2017-11-11T05:43:03.845Z,4.70
2017-11-11T05:45:31.356Z,4.80
2017-11-11T05:47:59.172Z,4.80
2017-11-11T05:50:26.696Z,4.90
2017-11-11T05:52:54.204Z,4.90
2017-11-11T05:55:21.765Z,4.90
2017-11-11T05:57:49.285Z,4.90
2017-11-11T06:00:16.787Z,5.00
2017-11-11T06:02:44.379Z,5.00
2017-11-11T06:05:11.940Z,5.00
2017-11-11T06:07:39.444Z,5.00
2017-11-11T06:10:07.749Z,5.00
2017-11-11T06:12:35.768Z,5.00
2017-11-11T06:15:03.290Z,5.10
2017-11-11T06:17:30.872Z,5.10
2017-11-11T06:19:58.388Z,5.00
2017-11-11T06:22:25.899Z,5.10
2017-11-11T06:24:53.469Z,5.10
2017-11-11T06:27:20.979Z,5.10
2017-11-11T06:29:48.825Z,5.10
2017-11-11T06:32:16.974Z,5.20
2017-11-11T06:34:44.489Z,5.20
2017-11-11T06:37:11.992Z,5.20
2017-11-11T06:39:39.581Z,5.20
2017-11-11T06:42:07.104Z,5.20
2017-11-11T06:44:34.617Z,5.20
2017-11-11T06:47:02.171Z,5.20
2017-11-11T06:49:29.697Z,5.30
2017-11-11T06:51:57.224Z,5.30
2017-11-11T06:54:24.813Z,5.40
2017-11-11T06:56:52.528Z,5.40
2017-11-11T06:59:20.824Z,5.40
2017-11-11T07:01:48.387Z,5.40
2017-11-11T07:04:27.390Z,5.40
2017-11-11T07:06:54.924Z,5.60
2017-11-11T07:09:22.437Z,5.60
2017-11-11T07:11:49.981Z,5.70
2017-11-11T07:14:17.479Z,5.70
2017-11-11T07:16:45.736Z,5.80
2017-11-11T07:19:13.307Z,5.80
2017-11-11T07:21:40.813Z,5.90
2017-11-11T07:24:08.311Z,5.90
2017-11-11T07:26:35.865Z,6.00
2017-11-11T07:29:03.373Z,6.00
2017-11-11T07:31:30.880Z,6.10
2017-11-11T07:33:58.405Z,6.10
2017-11-11T07:36:25.913Z,6.10
2017-11-11T07:38:53.435Z,5.90
2017-11-11T07:41:20.945Z,5.80
2017-11-11T07:43:48.564Z,5.80
2017-11-11T07:46:16.064Z,5.90
2017-11-11T07:48:44.343Z,5.90
2017-11-11T07:51:12.669Z,5.80
2017-11-11T07:53:40.177Z,6.00
2017-11-11T07:56:07.697Z,6.00
2017-11-11T07:58:35.345Z,6.10
2017-11-11T08:01:02.880Z,6.20
2017-11-11T08:03:30.384Z,6.20
2017-11-11T08:05:58.037Z,6.20
2017-11-11T08:08:25.596Z,6.20
2017-11-11T08:10:53.103Z,6.30
2017-11-11T08:13:20.663Z,6.30
2017-11-11T08:15:48.180Z,6.30
2017-11-11T08:18:15.696Z,6.30
2017-11-11T08:20:43.251Z,6.40
2017-11-11T08:23:10.760Z,6.50
2017-11-11T08:25:38.988Z,6.50
2017-11-11T08:28:06.560Z,6.50
2017-11-11T08:30:34.125Z,6.60
2017-11-11T08:33:02.437Z,6.80
2017-11-11T08:35:29.946Z,6.80
2017-11-11T08:37:57.496Z,6.80
2017-11-11T08:40:25.051Z,6.80
2017-11-11T08:42:52.556Z,6.80
2017-11-11T08:45:20.059Z,6.80
2017-11-11T08:47:47.638Z,7.00
2017-11-11T08:50:15.164Z,7.00
2017-11-11T08:52:42.667Z,7.20
2017-11-11T08:55:10.237Z,7.30
2017-11-11T08:57:37.752Z,7.30
2017-11-11T09:00:05.433Z,7.50
2017-11-11T09:02:33.029Z,7.50
2017-11-11T09:05:00.532Z,7.60
2017-11-11T09:07:28.045Z,7.80
2017-11-11T09:09:55.566Z,7.90
2017-11-11T09:12:23.068Z,7.60
2017-11-11T09:14:50.619Z,7.70
2017-11-11T09:17:18.121Z,7.90
2017-11-11T09:19:46.384Z,7.90
2017-11-11T09:22:14.800Z,8.00
2017-11-11T09:24:42.307Z,7.80
2017-11-11T09:27:09.804Z,8.00
2017-11-11T09:29:38.124Z,7.90
2017-11-11T09:32:05.637Z,8.00
2017-11-11T09:34:33.157Z,8.00
2017-11-11T09:37:00.736Z,7.90
2017-11-11T09:39:28.247Z,7.90
2017-11-11T09:41:55.772Z,7.70
2017-11-11T09:44:24.083Z,7.70
2017-11-11T09:47:11.225Z,7.70
2017-11-11T09:49:38.805Z,7.70
2017-11-11T09:52:06.304Z,7.70
2017-11-11T09:54:33.832Z,7.80
2017-11-11T09:57:01.389Z,7.90
2017-11-11T09:59:28.892Z,7.80
2017-11-11T10:01:56.417Z,7.70
2017-11-11T10:04:23.953Z,7.70
2017-11-11T10:06:51.461Z,7.50
2017-11-11T10:09:19.012Z,7.40
2017-11-11T10:11:47.597Z,7.50
2017-11-11T10:14:15.097Z,7.60
2017-11-11T10:16:42.596Z,7.60
2017-11-11T10:19:10.148Z,7.60
2017-11-11T10:21:38.416Z,7.50
2017-11-11T10:24:05.919Z,7.50
2017-11-11T10:26:33.499Z,7.60
2017-11-11T10:29:01.004Z,7.70
2017-11-11T10:31:29.276Z,7.70
2017-11-11T10:33:57.595Z,7.80
2017-11-11T10:36:25.102Z,7.80
2017-11-11T10:38:52.607Z,7.80
2017-11-11T10:41:20.269Z,7.80
2017-11-11T10:43:47.769Z,7.70
2017-11-11T10:46:15.278Z,7.70
2017-11-11T10:48:42.924Z,7.60
2017-11-11T10:51:11.197Z,7.50
2017-11-11T10:53:39.469Z,7.50
2017-11-11T10:56:07.799Z,7.40
2017-11-11T10:58:35.303Z,7.40
2017-11-11T11:01:02.816Z,7.50
2017-11-11T11:03:30.386Z,7.50
2017-11-11T11:05:57.892Z,7.50
2017-11-11T11:08:25.398Z,7.40
2017-11-11T11:10:52.948Z,7.30
2017-11-11T11:13:20.454Z,7.30
2017-11-11T11:15:47.973Z,7.40
2017-11-11T11:18:15.507Z,7.30
2017-11-11T11:20:43.012Z,7.30
2017-11-11T11:23:10.564Z,7.40
2017-11-11T11:25:38.076Z,7.40
2017-11-11T11:28:05.581Z,7.40
2017-11-11T11:30:33.115Z,7.50
2017-11-11T11:33:00.629Z,7.50
2017-11-11T11:35:28.896Z,7.60
2017-11-11T11:37:57.231Z,7.70
2017-11-11T11:40:24.741Z,7.70
2017-11-11T11:42:52.245Z,7.70
2017-11-11T11:45:19.808Z,7.70
2017-11-11T11:47:47.324Z,7.70
2017-11-11T11:50:14.827Z,7.60
2017-11-11T11:52:42.505Z,7.80
2017-11-11T11:55:09.996Z,7.70
2017-11-11T11:57:38.259Z,7.80
2017-11-11T12:00:05.916Z,7.80
2017-11-11T12:02:33.422Z,7.80
2017-11-11T12:05:00.933Z,7.60
2017-11-11T12:07:28.247Z,7.70
2017-11-11T12:09:55.743Z,7.70
2017-11-11T12:12:23.240Z,7.70
2017-11-11T12:14:50.795Z,7.70
2017-11-11T12:17:18.315Z,7.60
2017-11-11T12:19:45.819Z,7.60
2017-11-11T12:22:13.391Z,7.60
2017-11-11T12:24:40.908Z,7.60
2017-11-11T12:27:08.408Z,7.40
2017-11-11T12:29:35.960Z,7.40
2017-11-11T12:32:03.469Z,7.40
2017-11-11T12:34:30.972Z,7.40
2017-11-11T12:36:58.508Z,7.50
2017-11-11T12:39:26.012Z,7.50
2017-11-11T12:41:53.516Z,7.60
2017-11-11T12:44:21.074Z,7.60
2017-11-11T12:46:48.591Z,7.60
2017-11-11T12:49:16.088Z,7.60
2017-11-11T12:51:43.644Z,7.70
2017-11-11T12:54:11.148Z,7.60
2017-11-11T12:56:38.657Z,7.70
2017-11-11T12:59:06.225Z,7.60
2017-11-11T13:01:33.743Z,7.60
2017-11-11T13:04:01.256Z,7.50
2017-11-11T13:06:29.572Z,7.40
2017-11-11T13:08:57.073Z,7.40
2017-11-11T13:11:24.590Z,7.40
2017-11-11T13:13:52.156Z,7.40
2017-11-11T13:16:19.680Z,7.30
2017-11-11T13:18:47.196Z,7.20
2017-11-11T13:21:15.056Z,7.20
2017-11-11T13:23:43.324Z,7.10
2017-11-11T13:26:11.599Z,7.20
2017-11-11T13:28:39.169Z,7.20
2017-11-11T13:31:06.675Z,7.20
2017-11-11T13:33:34.185Z,7.20
2017-11-11T13:36:01.736Z,7.20
2017-11-11T13:38:29.244Z,7.20
2017-11-11T13:40:56.744Z,7.20
2017-11-11T13:43:24.297Z,7.20
2017-11-11T13:45:51.805Z,7.20
2017-11-11T13:48:19.416Z,7.20
2017-11-11T13:50:46.997Z,7.20
2017-11-11T13:53:14.505Z,7.20
2017-11-11T13:55:42.008Z,7.20
2017-11-11T13:58:09.541Z,7.20
2017-11-11T14:00:37.043Z,7.30
2017-11-11T14:03:04.544Z,7.20
2017-11-11T14:05:32.204Z,7.20
2017-11-11T14:07:59.709Z,7.30
2017-11-11T14:10:27.248Z,7.30
2017-11-11T14:12:54.990Z,7.30
2017-11-11T14:15:22.501Z,7.40
2017-11-11T14:17:50.385Z,7.40
2017-11-11T14:20:17.951Z,7.40
2017-11-11T14:22:45.453Z,7.50
2017-11-11T14:25:12.956Z,7.50
2017-11-11T14:27:40.505Z,7.50
2017-11-11T14:30:08.019Z,7.50
2017-11-11T14:32:35.520Z,7.50
2017-11-11T14:35:03.166Z,7.50
2017-11-11T14:37:30.688Z,7.50
2017-11-11T14:39:58.188Z,7.50
2017-11-11T14:42:25.751Z,7.50
2017-11-11T14:44:53.264Z,7.50
2017-11-11T14:47:20.769Z,7.50
2017-11-11T14:49:48.347Z,7.50
2017-11-11T14:52:15.848Z,7.50
2017-11-11T14:54:43.356Z,7.50
2017-11-11T14:57:10.933Z,7.50
2017-11-11T14:59:38.442Z,7.50
2017-11-11T15:02:05.953Z,7.50
2017-11-11T15:04:33.862Z,7.50
2017-11-11T15:07:01.573Z,7.50
2017-11-11T15:09:29.081Z,7.50
2017-11-11T15:11:56.648Z,7.50
2017-11-11T15:14:24.164Z,7.60
2017-11-11T15:16:51.901Z,7.60
2017-11-11T15:19:19.456Z,7.60
2017-11-11T15:21:46.956Z,7.50
2017-11-11T15:24:14.466Z,7.60
2017-11-11T15:26:42.016Z,7.60
2017-11-11T15:29:09.528Z,7.60
2017-11-11T15:31:37.044Z,7.60
2017-11-11T15:34:04.605Z,7.60
2017-11-11T15:36:32.108Z,7.60
2017-11-11T15:38:59.613Z,7.60
2017-11-11T15:41:27.168Z,7.60
2017-11-11T15:43:54.668Z,7.60
2017-11-11T15:46:22.544Z,7.70
2017-11-11T15:48:50.107Z,7.70
2017-11-11T15:51:18.377Z,7.70
2017-11-11T15:53:45.703Z,7.70
2017-11-11T15:56:13.216Z,7.80
2017-11-11T15:58:40.720Z,7.80
2017-11-11T16:01:08.944Z,7.90
2017-11-11T16:03:36.448Z,7.90
2017-11-11T16:06:03.960Z,7.90
2017-11-11T16:08:32.292Z,8.00
2017-11-11T16:10:59.796Z,8.00
2017-11-11T16:13:27.333Z,8.00
2017-11-11T16:15:56.152Z,8.00
2017-11-11T16:18:23.648Z,8.00
2017-11-11T16:20:51.154Z,8.00
2017-11-11T16:23:18.733Z,8.00
2017-11-11T16:25:46.240Z,8.00
2017-11-11T16:28:14.511Z,8.00
2017-11-11T16:30:42.834Z,8.00
2017-11-11T16:33:10.342Z,8.00
2017-11-11T16:35:37.847Z,8.00
2017-11-11T16:38:06.169Z,8.00
2017-11-11T16:40:33.674Z,8.10
2017-11-11T16:43:01.172Z,8.10
2017-11-11T16:45:28.840Z,8.10
2017-11-11T16:47:56.343Z,8.10
2017-11-11T16:50:23.849Z,8.10
2017-11-11T16:52:51.411Z,8.20
2017-11-11T16:55:19.026Z,8.20
2017-11-11T16:57:47.152Z,8.10
2017-11-11T17:00:15.312Z,8.20
2017-11-11T17:02:43.585Z,8.20
2017-11-11T17:05:11.869Z,8.20
2017-11-11T17:07:39.416Z,8.20
2017-11-11T17:10:08.378Z,8.20
2017-11-11T17:12:35.960Z,8.20
2017-11-11T17:15:04.230Z,8.20
2017-11-11T17:17:32.517Z,8.30
2017-11-11T17:20:00.707Z,8.30
2017-11-11T17:22:28.208Z,8.30
2017-11-11T17:24:55.709Z,8.30
2017-11-11T17:27:23.268Z,8.30
2017-11-11T17:29:50.765Z,8.40
2017-11-11T17:32:18.271Z,8.40
2017-11-11T17:34:45.819Z,8.40
2017-11-11T17:37:13.334Z,8.40
2017-11-11T17:39:40.841Z,8.40
2017-11-11T17:42:08.399Z,8.50
2017-11-11T17:44:35.909Z,8.50
2017-11-11T17:47:03.417Z,8.50
2017-11-11T17:49:30.984Z,8.60
2017-11-11T17:51:58.484Z,8.60
2017-11-11T17:54:25.988Z,8.60
2017-11-11T17:56:53.651Z,8.60
2017-11-11T17:59:21.928Z,8.60
2017-11-11T18:01:49.424Z,8.60
2017-11-11T18:04:16.990Z,8.70
2017-11-11T18:06:44.497Z,8.70
2017-11-11T18:09:11.995Z,8.60
2017-11-11T18:11:39.657Z,8.70
2017-11-11T18:14:07.158Z,8.70
2017-11-11T18:16:34.660Z,8.70
2017-11-11T18:19:02.208Z,8.80
2017-11-11T18:21:30.485Z,8.70
2017-11-11T18:23:58.853Z,8.70
2017-11-11T18:26:26.389Z,8.70
2017-11-11T18:28:53.909Z,8.70
2017-11-11T18:31:21.469Z,8.80
2017-11-11T18:33:48.985Z,8.70
2017-11-11T18:36:16.585Z,8.80
2017-11-11T18:38:44.209Z,8.80
2017-11-11T18:41:11.712Z,8.80
2017-11-11T18:43:39.233Z,8.80
2017-11-11T18:46:06.825Z,8.80
2017-11-11T18:48:34.507Z,8.70
2017-11-11T18:51:02.015Z,8.70
2017-11-11T18:53:29.586Z,8.70
2017-11-11T18:55:57.091Z,8.70
2017-11-11T18:58:24.593Z,8.70
2017-11-11T19:00:52.156Z,8.70
2017-11-11T19:03:19.696Z,8.80
2017-11-11T19:05:47.201Z,8.80
2017-11-11T19:08:14.753Z,8.80
2017-11-11T19:10:42.267Z,8.80
2017-11-11T19:13:09.802Z,8.80
2017-11-11T19:15:37.393Z,8.80
2017-11-11T19:18:04.904Z,8.80
2017-11-11T19:20:32.431Z,8.80
2017-11-11T19:23:00.001Z,8.80
2017-11-11T19:25:27.680Z,8.80
2017-11-11T19:27:55.892Z,8.80
2017-11-11T19:30:23.460Z,8.90
2017-11-11T19:32:50.960Z,8.90
2017-11-11T19:35:18.513Z,8.90
2017-11-11T19:37:46.015Z,9.00
2017-11-11T19:40:13.523Z,8.90
2017-11-11T19:42:41.195Z,9.00
2017-11-11T19:45:08.700Z,9.00
2017-11-11T19:47:36.281Z,9.00
2017-11-11T19:50:03.845Z,9.00
2017-11-11T19:52:31.376Z,9.00
2017-11-11T19:54:59.017Z,9.00
2017-11-11T19:57:26.529Z,9.00
2017-11-11T19:59:54.180Z,9.00
2017-11-11T20:02:21.743Z,9.00
2017-11-11T20:04:49.251Z,9.00
2017-11-11T20:07:16.748Z,8.90
2017-11-11T20:09:44.308Z,9.00
2017-11-11T20:12:11.815Z,9.00
2017-11-11T20:14:39.476Z,9.00
2017-11-11T20:17:07.020Z,9.00
2017-11-11T20:19:34.528Z,9.10
2017-11-11T20:22:02.322Z,9.10
2017-11-11T20:24:29.876Z,9.10
2017-11-11T20:26:57.386Z,9.10
2017-11-11T20:29:24.978Z,9.10
2017-11-11T20:31:53.115Z,9.10
2017-11-11T20:34:20.756Z,9.10
2017-11-11T20:36:48.279Z,9.10
2017-11-11T20:39:15.787Z,9.20
2017-11-11T20:41:43.651Z,9.20
2017-11-11T20:44:11.648Z,9.20
2017-11-11T20:46:39.460Z,9.20
2017-11-11T20:49:06.986Z,9.10
2017-11-11T20:51:34.855Z,9.20
2017-11-11T20:54:02.360Z,9.10
2017-11-11T20:56:30.009Z,9.00
2017-11-11T20:58:57.663Z,9.00
2017-11-11T21:01:25.167Z,8.90
2017-11-11T21:03:52.675Z,8.90
2017-11-11T21:06:22.424Z,8.90
2017-11-11T21:08:50.617Z,8.90
2017-11-11T21:11:18.224Z,8.90
2017-11-11T21:13:45.769Z,8.90
2017-11-11T21:16:13.273Z,8.90
2017-11-11T21:18:40.828Z,8.90
2017-11-11T21:21:08.338Z,8.90
2017-11-11T21:23:35.847Z,8.90
2017-11-11T21:26:03.492Z,8.90
2017-11-11T21:28:31.087Z,8.90
2017-11-11T21:30:58.608Z,8.90
2017-11-11T21:33:26.268Z,8.90
2017-11-11T21:35:53.943Z,8.90
2017-11-11T21:38:21.456Z,8.80
2017-11-11T21:40:48.965Z,8.90
2017-11-11T21:43:16.516Z,8.90
2017-11-11T21:45:44.072Z,8.90
2017-11-11T21:48:11.677Z,9.00
2017-11-11T21:50:56.272Z,8.90
2017-11-11T21:53:23.863Z,9.00
2017-11-11T21:55:51.396Z,8.90
2017-11-11T21:58:18.921Z,8.90
2017-11-11T22:00:46.449Z,8.30
2017-11-11T22:03:14.554Z,7.90
2017-11-11T22:05:42.189Z,7.70
2017-11-11T22:08:09.706Z,7.60
2017-11-11T22:10:37.220Z,7.50
2017-11-11T22:13:04.763Z,7.40
2017-11-11T22:15:32.277Z,7.40
2017-11-11T22:17:59.788Z,7.30
2017-11-11T22:20:27.452Z,7.30
2017-11-11T22:22:54.966Z,7.30
2017-11-11T22:25:22.468Z,7.20
2017-11-11T22:27:50.016Z,7.10
2017-11-11T22:30:17.528Z,7.20
2017-11-11T22:32:45.804Z,7.00
2017-11-11T22:35:14.155Z,7.00
2017-11-11T22:37:41.714Z,7.00
2017-11-11T22:40:09.227Z,6.90
2017-11-11T22:42:36.812Z,6.90
2017-11-11T22:45:04.320Z,6.90
2017-11-11T22:47:31.820Z,6.90
2017-11-11T22:49:59.384Z,6.80
2017-11-11T22:52:26.897Z,6.80
2017-11-11T22:54:54.413Z,6.80
2017-11-11T22:57:22.147Z,6.80
2017-11-11T22:59:49.661Z,6.70
2017-11-11T23:02:17.174Z,6.70
2017-11-11T23:04:44.729Z,6.70
2017-11-11T23:07:12.528Z,6.60
2017-11-11T23:09:40.084Z,6.60
2017-11-11T23:12:07.659Z,6.60
2017-11-11T23:14:35.160Z,6.60
2017-11-11T23:17:02.664Z,6.60
2017-11-11T23:19:30.212Z,6.60
2017-11-11T23:21:57.713Z,6.60
2017-11-11T23:24:25.216Z,6.50
2017-11-11T23:26:52.792Z,6.50
2017-11-11T23:29:20.292Z,6.50
2017-11-11T23:31:47.792Z,6.50
2017-11-11T23:34:15.368Z,6.50
2017-11-11T23:36:42.888Z,6.40
2017-11-11T23:39:10.392Z,6.50
2017-11-11T23:41:38.045Z,6.50
2017-11-11T23:44:06.322Z,6.50
2017-11-11T23:46:33.823Z,6.50
2017-11-11T23:49:02.276Z,6.40
2017-11-11T23:51:29.781Z,6.40
2017-11-11T23:53:57.496Z,6.40
2017-11-11T23:56:25.053Z,6.40
2017-11-11T23:58:52.568Z,6.30
